sensor_id;sensor_type;location;lat;lon;timestamp;temperature;humidity
40738;DHT22;54759;48.094;-1.628;2023-04-22T00:02:43;21.90;35.60
40738;DHT22;54759;48.094;-1.628;2023-04-22T00:05:45;22.10;35.70
40738;DHT22;54759;48.094;-1.628;2023-04-22T00:08:47;21.90;35.50
40738;DHT22;54759;48.094;-1.628;2023-04-22T00:11:48;22.10;35.70
40738;DHT22;54759;48.094;-1.628;2023-04-22T00:14:50;22.10;35.90
40738;DHT22;54759;48.094;-1.628;2023-04-22T00:17:52;21.90;35.60
40738;DHT22;54759;48.094;-1.628;2023-04-22T00:20:55;21.90;35.80
40738;DHT22;54759;48.094;-1.628;2023-04-22T00:23:57;22.10;35.70
40738;DHT22;54759;48.094;-1.628;2023-04-22T00:27:01;22.20;35.80
40738;DHT22;54759;48.094;-1.628;2023-04-22T00:30:06;21.90;35.60
40738;DHT22;54759;48.094;-1.628;2023-04-22T00:33:09;21.90;35.50
40738;DHT22;54759;48.094;-1.628;2023-04-22T00:36:11;22.20;35.80
40738;DHT22;54759;48.094;-1.628;2023-04-22T00:39:12;22.10;35.90
40738;DHT22;54759;48.094;-1.628;2023-04-22T00:42:14;22.40;36.20
40738;DHT22;54759;48.094;-1.628;2023-04-22T00:45:18;21.90;36.00
40738;DHT22;54759;48.094;-1.628;2023-04-22T00:48:20;22.10;35.70
40738;DHT22;54759;48.094;-1.628;2023-04-22T00:51:22;22.00;35.70
40738;DHT22;54759;48.094;-1.628;2023-04-22T00:54:23;21.80;35.60
40738;DHT22;54759;48.094;-1.628;2023-04-22T00:57:31;22.20;36.10
40738;DHT22;54759;48.094;-1.628;2023-04-22T01:00:35;22.10;35.90
40738;DHT22;54759;48.094;-1.628;2023-04-22T01:03:39;21.90;36.00
40738;DHT22;54759;48.094;-1.628;2023-04-22T01:06:42;22.10;35.90
40738;DHT22;54759;48.094;-1.628;2023-04-22T01:09:47;22.00;35.90
40738;DHT22;54759;48.094;-1.628;2023-04-22T01:12:48;22.10;36.10
40738;DHT22;54759;48.094;-1.628;2023-04-22T01:15:50;22.00;36.10
40738;DHT22;54759;48.094;-1.628;2023-04-22T01:18:52;21.60;36.10
40738;DHT22;54759;48.094;-1.628;2023-04-22T01:21:54;22.00;36.00
40738;DHT22;54759;48.094;-1.628;2023-04-22T01:24:58;21.60;36.00
40738;DHT22;54759;48.094;-1.628;2023-04-22T01:28:00;22.10;36.20
40738;DHT22;54759;48.094;-1.628;2023-04-22T01:31:03;22.10;36.20
40738;DHT22;54759;48.094;-1.628;2023-04-22T01:34:06;21.90;36.10
40738;DHT22;54759;48.094;-1.628;2023-04-22T01:37:07;21.80;36.20
40738;DHT22;54759;48.094;-1.628;2023-04-22T01:40:10;21.70;36.10
40738;DHT22;54759;48.094;-1.628;2023-04-22T01:43:12;22.30;36.60
40738;DHT22;54759;48.094;-1.628;2023-04-22T01:46:16;22.00;36.50
40738;DHT22;54759;48.094;-1.628;2023-04-22T01:49:18;21.70;34.70
40738;DHT22;54759;48.094;-1.628;2023-04-22T01:52:20;21.60;36.20
40738;DHT22;54759;48.094;-1.628;2023-04-22T01:55:25;21.50;36.90
40738;DHT22;54759;48.094;-1.628;2023-04-22T01:58:28;21.70;34.70
40738;DHT22;54759;48.094;-1.628;2023-04-22T02:01:31;21.70;36.20
40738;DHT22;54759;48.094;-1.628;2023-04-22T02:04:32;22.20;36.60
40738;DHT22;54759;48.094;-1.628;2023-04-22T02:07:34;21.60;36.50
40738;DHT22;54759;48.094;-1.628;2023-04-22T02:10:40;21.70;36.60
40738;DHT22;54759;48.094;-1.628;2023-04-22T02:13:41;21.80;36.50
40738;DHT22;54759;48.094;-1.628;2023-04-22T02:16:42;21.90;36.60
40738;DHT22;54759;48.094;-1.628;2023-04-22T02:19:44;22.30;37.10
40738;DHT22;54759;48.094;-1.628;2023-04-22T02:22:47;21.60;36.40
40738;DHT22;54759;48.094;-1.628;2023-04-22T02:25:51;21.50;36.40
40738;DHT22;54759;48.094;-1.628;2023-04-22T02:28:53;21.20;36.20
40738;DHT22;54759;48.094;-1.628;2023-04-22T02:31:54;21.70;36.70
40738;DHT22;54759;48.094;-1.628;2023-04-22T02:34:56;21.60;36.80
40738;DHT22;54759;48.094;-1.628;2023-04-22T02:37:57;21.60;36.90
40738;DHT22;54759;48.094;-1.628;2023-04-22T02:41:01;21.50;36.90
40738;DHT22;54759;48.094;-1.628;2023-04-22T02:44:03;22.20;37.00
40738;DHT22;54759;48.094;-1.628;2023-04-22T02:47:05;21.50;36.70
40738;DHT22;54759;48.094;-1.628;2023-04-22T02:50:08;21.50;37.20
40738;DHT22;54759;48.094;-1.628;2023-04-22T02:53:10;21.70;36.60
40738;DHT22;54759;48.094;-1.628;2023-04-22T02:56:12;22.20;37.00
40738;DHT22;54759;48.094;-1.628;2023-04-22T02:59:13;21.90;37.10
40738;DHT22;54759;48.094;-1.628;2023-04-22T03:02:17;21.60;36.70
40738;DHT22;54759;48.094;-1.628;2023-04-22T03:05:36;21.50;36.60
40738;DHT22;54759;48.094;-1.628;2023-04-22T03:08:41;21.70;37.10
40738;DHT22;54759;48.094;-1.628;2023-04-22T03:11:43;21.40;36.60
40738;DHT22;54759;48.094;-1.628;2023-04-22T03:14:45;21.40;36.60
40738;DHT22;54759;48.094;-1.628;2023-04-22T03:17:47;21.50;36.60
40738;DHT22;54759;48.094;-1.628;2023-04-22T03:20:49;21.50;36.50
40738;DHT22;54759;48.094;-1.628;2023-04-22T03:23:52;21.80;36.60
40738;DHT22;54759;48.094;-1.628;2023-04-22T03:26:53;21.40;36.50
40738;DHT22;54759;48.094;-1.628;2023-04-22T03:29:55;21.90;37.00
40738;DHT22;54759;48.094;-1.628;2023-04-22T03:32:56;21.40;36.70
40738;DHT22;54759;48.094;-1.628;2023-04-22T03:36:07;21.90;37.00
40738;DHT22;54759;48.094;-1.628;2023-04-22T03:39:09;21.40;36.40
40738;DHT22;54759;48.094;-1.628;2023-04-22T03:42:16;21.10;36.40
40738;DHT22;54759;48.094;-1.628;2023-04-22T03:45:18;21.30;36.60
40738;DHT22;54759;48.094;-1.628;2023-04-22T03:48:26;21.80;37.00
40738;DHT22;54759;48.094;-1.628;2023-04-22T03:51:33;21.60;36.80
40738;DHT22;54759;48.094;-1.628;2023-04-22T03:54:39;21.40;36.90
40738;DHT22;54759;48.094;-1.628;2023-04-22T03:57:41;21.30;37.10
40738;DHT22;54759;48.094;-1.628;2023-04-22T04:00:43;21.50;37.30
40738;DHT22;54759;48.094;-1.628;2023-04-22T04:03:49;21.40;37.50
40738;DHT22;54759;48.094;-1.628;2023-04-22T04:06:53;21.30;37.50
40738;DHT22;54759;48.094;-1.628;2023-04-22T04:09:57;21.30;37.70
40738;DHT22;54759;48.094;-1.628;2023-04-22T04:12:59;21.40;38.00
40738;DHT22;54759;48.094;-1.628;2023-04-22T04:16:03;21.60;38.50
40738;DHT22;54759;48.094;-1.628;2023-04-22T04:19:06;21.50;38.30
40738;DHT22;54759;48.094;-1.628;2023-04-22T04:22:10;21.50;38.60
40738;DHT22;54759;48.094;-1.628;2023-04-22T04:25:21;21.30;38.60
40738;DHT22;54759;48.094;-1.628;2023-04-22T04:28:24;21.40;38.90
40738;DHT22;54759;48.094;-1.628;2023-04-22T04:31:25;21.30;39.10
40738;DHT22;54759;48.094;-1.628;2023-04-22T04:34:30;21.20;39.10
40738;DHT22;54759;48.094;-1.628;2023-04-22T04:37:35;21.70;39.50
40738;DHT22;54759;48.094;-1.628;2023-04-22T04:40:41;21.70;39.70
40738;DHT22;54759;48.094;-1.628;2023-04-22T04:43:51;22.00;39.90
40738;DHT22;54759;48.094;-1.628;2023-04-22T04:47:00;21.40;39.70
40738;DHT22;54759;48.094;-1.628;2023-04-22T04:50:03;21.40;40.00
40738;DHT22;54759;48.094;-1.628;2023-04-22T04:53:07;21.50;39.90
40738;DHT22;54759;48.094;-1.628;2023-04-22T04:56:12;21.80;40.20
40738;DHT22;54759;48.094;-1.628;2023-04-22T04:59:14;21.30;40.00
40738;DHT22;54759;48.094;-1.628;2023-04-22T05:02:16;21.40;40.30
40738;DHT22;54759;48.094;-1.628;2023-04-22T05:05:19;21.30;40.00
40738;DHT22;54759;48.094;-1.628;2023-04-22T05:08:21;21.40;40.20
40738;DHT22;54759;48.094;-1.628;2023-04-22T05:11:24;21.30;40.20
40738;DHT22;54759;48.094;-1.628;2023-04-22T05:14:29;21.10;40.80
40738;DHT22;54759;48.094;-1.628;2023-04-22T05:17:31;21.10;39.90
40738;DHT22;54759;48.094;-1.628;2023-04-22T05:20:33;21.20;40.20
40738;DHT22;54759;48.094;-1.628;2023-04-22T05:23:37;21.30;40.20
40738;DHT22;54759;48.094;-1.628;2023-04-22T05:26:40;21.30;40.10
40738;DHT22;54759;48.094;-1.628;2023-04-22T05:29:50;21.20;40.20
40738;DHT22;54759;48.094;-1.628;2023-04-22T05:32:57;21.60;40.40
40738;DHT22;54759;48.094;-1.628;2023-04-22T05:35:58;21.50;40.40
40738;DHT22;54759;48.094;-1.628;2023-04-22T05:39:00;21.70;40.60
40738;DHT22;54759;48.094;-1.628;2023-04-22T05:42:04;21.20;40.40
40738;DHT22;54759;48.094;-1.628;2023-04-22T05:45:09;21.40;40.40
40738;DHT22;54759;48.094;-1.628;2023-04-22T05:48:11;21.30;40.10
40738;DHT22;54759;48.094;-1.628;2023-04-22T05:51:21;21.60;40.50
40738;DHT22;54759;48.094;-1.628;2023-04-22T05:54:24;21.60;40.60
40738;DHT22;54759;48.094;-1.628;2023-04-22T05:57:25;21.60;40.50
40738;DHT22;54759;48.094;-1.628;2023-04-22T06:00:27;21.20;40.60
40738;DHT22;54759;48.094;-1.628;2023-04-22T06:03:44;21.50;40.60
40738;DHT22;54759;48.094;-1.628;2023-04-22T06:06:46;21.60;40.60
40738;DHT22;54759;48.094;-1.628;2023-04-22T06:09:48;21.60;40.40
40738;DHT22;54759;48.094;-1.628;2023-04-22T06:12:54;21.70;40.40
40738;DHT22;54759;48.094;-1.628;2023-04-22T06:15:58;21.70;40.40
40738;DHT22;54759;48.094;-1.628;2023-04-22T06:19:01;21.60;40.30
40738;DHT22;54759;48.094;-1.628;2023-04-22T06:22:05;21.00;39.90
40738;DHT22;54759;48.094;-1.628;2023-04-22T06:25:06;21.40;40.40
40738;DHT22;54759;48.094;-1.628;2023-04-22T06:28:08;21.60;40.30
40738;DHT22;54759;48.094;-1.628;2023-04-22T06:31:14;21.30;40.30
40738;DHT22;54759;48.094;-1.628;2023-04-22T06:34:18;21.60;40.40
40738;DHT22;54759;48.094;-1.628;2023-04-22T06:37:20;21.90;40.60
40738;DHT22;54759;48.094;-1.628;2023-04-22T06:40:22;21.30;40.10
40738;DHT22;54759;48.094;-1.628;2023-04-22T06:43:37;21.30;40.50
40738;DHT22;54759;48.094;-1.628;2023-04-22T06:51:59;21.90;38.50
40738;DHT22;54759;48.094;-1.628;2023-04-22T06:55:01;21.10;40.00
40738;DHT22;54759;48.094;-1.628;2023-04-22T06:58:04;21.50;40.10
40738;DHT22;54759;48.094;-1.628;2023-04-22T07:01:09;21.70;40.20
40738;DHT22;54759;48.094;-1.628;2023-04-22T07:04:13;21.70;40.30
40738;DHT22;54759;48.094;-1.628;2023-04-22T07:07:15;21.40;40.00
40738;DHT22;54759;48.094;-1.628;2023-04-22T07:10:17;21.10;39.60
40738;DHT22;54759;48.094;-1.628;2023-04-22T07:13:39;21.30;39.80
40738;DHT22;54759;48.094;-1.628;2023-04-22T07:16:40;21.20;40.00
40738;DHT22;54759;48.094;-1.628;2023-04-22T07:19:42;21.20;39.80
40738;DHT22;54759;48.094;-1.628;2023-04-22T07:22:44;21.90;40.10
40738;DHT22;54759;48.094;-1.628;2023-04-22T07:28:47;21.50;37.40
40738;DHT22;54759;48.094;-1.628;2023-04-22T07:31:49;21.70;39.80
40738;DHT22;54759;48.094;-1.628;2023-04-22T07:34:50;21.30;39.90
40738;DHT22;54759;48.094;-1.628;2023-04-22T07:37:57;21.20;39.50
40738;DHT22;54759;48.094;-1.628;2023-04-22T07:40:58;21.50;39.50
40738;DHT22;54759;48.094;-1.628;2023-04-22T07:44:00;21.40;39.50
40738;DHT22;54759;48.094;-1.628;2023-04-22T07:47:03;21.60;39.50
40738;DHT22;54759;48.094;-1.628;2023-04-22T07:50:05;21.30;39.20
40738;DHT22;54759;48.094;-1.628;2023-04-22T07:53:08;21.20;39.10
40738;DHT22;54759;48.094;-1.628;2023-04-22T07:56:10;21.60;39.30
40738;DHT22;54759;48.094;-1.628;2023-04-22T07:59:12;21.30;39.20
40738;DHT22;54759;48.094;-1.628;2023-04-22T08:02:13;21.50;39.70
40738;DHT22;54759;48.094;-1.628;2023-04-22T08:05:15;21.80;39.40
40738;DHT22;54759;48.094;-1.628;2023-04-22T08:08:17;21.80;39.50
40738;DHT22;54759;48.094;-1.628;2023-04-22T08:11:18;21.60;39.40
40738;DHT22;54759;48.094;-1.628;2023-04-22T08:14:20;21.30;39.30
40738;DHT22;54759;48.094;-1.628;2023-04-22T08:17:22;21.30;39.20
40738;DHT22;54759;48.094;-1.628;2023-04-22T08:20:24;21.40;39.20
40738;DHT22;54759;48.094;-1.628;2023-04-22T08:23:27;21.50;39.10
40738;DHT22;54759;48.094;-1.628;2023-04-22T08:26:30;21.40;39.00
40738;DHT22;54759;48.094;-1.628;2023-04-22T08:29:32;21.60;39.00
40738;DHT22;54759;48.094;-1.628;2023-04-22T08:32:34;21.80;39.80
40738;DHT22;54759;48.094;-1.628;2023-04-22T08:35:38;21.50;39.10
40738;DHT22;54759;48.094;-1.628;2023-04-22T08:38:41;21.60;38.70
40738;DHT22;54759;48.094;-1.628;2023-04-22T08:41:43;21.80;38.90
40738;DHT22;54759;48.094;-1.628;2023-04-22T08:44:47;21.50;38.80
40738;DHT22;54759;48.094;-1.628;2023-04-22T08:47:52;22.00;39.20
40738;DHT22;54759;48.094;-1.628;2023-04-22T08:50:54;21.60;39.00
40738;DHT22;54759;48.094;-1.628;2023-04-22T08:53:57;21.70;39.00
40738;DHT22;54759;48.094;-1.628;2023-04-22T08:56:59;21.60;39.00
40738;DHT22;54759;48.094;-1.628;2023-04-22T09:00:03;21.60;39.10
40738;DHT22;54759;48.094;-1.628;2023-04-22T09:03:05;22.10;39.20
40738;DHT22;54759;48.094;-1.628;2023-04-22T09:06:09;21.60;39.00
40738;DHT22;54759;48.094;-1.628;2023-04-22T09:09:12;21.60;39.00
40738;DHT22;54759;48.094;-1.628;2023-04-22T09:12:14;21.70;39.10
40738;DHT22;54759;48.094;-1.628;2023-04-22T09:15:18;21.60;39.20
40738;DHT22;54759;48.094;-1.628;2023-04-22T09:18:19;22.00;39.50
40738;DHT22;54759;48.094;-1.628;2023-04-22T09:21:24;22.20;39.70
40738;DHT22;54759;48.094;-1.628;2023-04-22T09:24:26;21.10;39.00
40738;DHT22;54759;48.094;-1.628;2023-04-22T09:27:28;22.10;39.80
40738;DHT22;54759;48.094;-1.628;2023-04-22T09:30:34;21.80;39.50
40738;DHT22;54759;48.094;-1.628;2023-04-22T09:33:38;21.80;39.40
40738;DHT22;54759;48.094;-1.628;2023-04-22T09:36:42;21.70;39.80
40738;DHT22;54759;48.094;-1.628;2023-04-22T09:39:47;21.60;39.40
40738;DHT22;54759;48.094;-1.628;2023-04-22T09:42:51;21.70;39.40
40738;DHT22;54759;48.094;-1.628;2023-04-22T09:45:58;21.90;39.60
40738;DHT22;54759;48.094;-1.628;2023-04-22T09:49:00;21.70;39.60
40738;DHT22;54759;48.094;-1.628;2023-04-22T09:52:02;22.00;40.00
40738;DHT22;54759;48.094;-1.628;2023-04-22T09:55:05;22.00;40.10
40738;DHT22;54759;48.094;-1.628;2023-04-22T09:58:10;22.00;40.40
40738;DHT22;54759;48.094;-1.628;2023-04-22T10:01:13;22.10;39.90
40738;DHT22;54759;48.094;-1.628;2023-04-22T10:04:14;22.20;40.10
40738;DHT22;54759;48.094;-1.628;2023-04-22T10:07:21;22.20;40.40
40738;DHT22;54759;48.094;-1.628;2023-04-22T10:10:23;22.20;40.30
40738;DHT22;54759;48.094;-1.628;2023-04-22T10:13:24;22.10;40.40
40738;DHT22;54759;48.094;-1.628;2023-04-22T10:16:29;22.20;40.40
40738;DHT22;54759;48.094;-1.628;2023-04-22T10:19:32;21.60;40.00
40738;DHT22;54759;48.094;-1.628;2023-04-22T10:22:34;21.50;40.00
40738;DHT22;54759;48.094;-1.628;2023-04-22T10:25:40;22.00;40.40
40738;DHT22;54759;48.094;-1.628;2023-04-22T10:28:42;21.80;40.10
40738;DHT22;54759;48.094;-1.628;2023-04-22T10:31:50;21.90;40.60
40738;DHT22;54759;48.094;-1.628;2023-04-22T10:35:08;22.20;40.40
40738;DHT22;54759;48.094;-1.628;2023-04-22T10:38:10;21.80;40.20
40738;DHT22;54759;48.094;-1.628;2023-04-22T10:41:14;22.10;40.70
40738;DHT22;54759;48.094;-1.628;2023-04-22T10:44:15;22.10;40.50
40738;DHT22;54759;48.094;-1.628;2023-04-22T10:47:26;22.20;40.70
40738;DHT22;54759;48.094;-1.628;2023-04-22T10:50:30;22.30;40.60
40738;DHT22;54759;48.094;-1.628;2023-04-22T10:53:35;22.30;40.80
40738;DHT22;54759;48.094;-1.628;2023-04-22T10:56:59;22.00;40.50
40738;DHT22;54759;48.094;-1.628;2023-04-22T11:00:16;22.00;40.60
40738;DHT22;54759;48.094;-1.628;2023-04-22T11:03:24;21.80;40.40
40738;DHT22;54759;48.094;-1.628;2023-04-22T11:06:27;22.20;40.70
40738;DHT22;54759;48.094;-1.628;2023-04-22T11:09:30;22.30;41.00
40738;DHT22;54759;48.094;-1.628;2023-04-22T11:12:41;22.50;41.00
40738;DHT22;54759;48.094;-1.628;2023-04-22T11:15:44;22.20;41.00
40738;DHT22;54759;48.094;-1.628;2023-04-22T11:18:46;22.20;40.70
40738;DHT22;54759;48.094;-1.628;2023-04-22T11:21:49;22.20;40.80
40738;DHT22;54759;48.094;-1.628;2023-04-22T11:24:53;22.30;40.90
40738;DHT22;54759;48.094;-1.628;2023-04-22T11:27:55;22.20;40.90
40738;DHT22;54759;48.094;-1.628;2023-04-22T11:31:03;22.10;40.80
40738;DHT22;54759;48.094;-1.628;2023-04-22T11:34:07;22.50;40.80
40738;DHT22;54759;48.094;-1.628;2023-04-22T11:37:09;22.30;40.90
40738;DHT22;54759;48.094;-1.628;2023-04-22T11:40:16;22.20;40.80
40738;DHT22;54759;48.094;-1.628;2023-04-22T11:43:34;22.70;41.10
40738;DHT22;54759;48.094;-1.628;2023-04-22T11:46:45;22.40;40.80
40738;DHT22;54759;48.094;-1.628;2023-04-22T11:49:54;22.40;41.10
40738;DHT22;54759;48.094;-1.628;2023-04-22T11:52:59;22.80;40.90
40738;DHT22;54759;48.094;-1.628;2023-04-22T11:56:01;22.50;40.70
40738;DHT22;54759;48.094;-1.628;2023-04-22T11:59:08;22.30;40.60
40738;DHT22;54759;48.094;-1.628;2023-04-22T12:02:09;22.40;41.20
40738;DHT22;54759;48.094;-1.628;2023-04-22T12:05:11;22.40;41.20
40738;DHT22;54759;48.094;-1.628;2023-04-22T12:08:17;22.70;40.80
40738;DHT22;54759;48.094;-1.628;2023-04-22T12:11:20;22.40;40.50
40738;DHT22;54759;48.094;-1.628;2023-04-22T12:14:30;22.80;40.90
40738;DHT22;54759;48.094;-1.628;2023-04-22T12:17:37;21.80;40.30
40738;DHT22;54759;48.094;-1.628;2023-04-22T12:20:42;22.80;40.30
40738;DHT22;54759;48.094;-1.628;2023-04-22T12:23:45;22.50;40.80
40738;DHT22;54759;48.094;-1.628;2023-04-22T12:26:49;22.30;40.80
40738;DHT22;54759;48.094;-1.628;2023-04-22T12:29:52;22.40;41.10
40738;DHT22;54759;48.094;-1.628;2023-04-22T12:32:53;23.10;41.60
40738;DHT22;54759;48.094;-1.628;2023-04-22T12:35:55;22.20;41.60
40738;DHT22;54759;48.094;-1.628;2023-04-22T12:38:59;23.20;41.80
40738;DHT22;54759;48.094;-1.628;2023-04-22T12:42:00;22.50;41.40
40738;DHT22;54759;48.094;-1.628;2023-04-22T12:45:05;22.70;41.80
40738;DHT22;54759;48.094;-1.628;2023-04-22T12:48:07;22.70;41.40
40738;DHT22;54759;48.094;-1.628;2023-04-22T12:51:08;22.40;41.60
40738;DHT22;54759;48.094;-1.628;2023-04-22T12:54:10;22.60;41.90
40738;DHT22;54759;48.094;-1.628;2023-04-22T12:57:11;22.50;41.40
40738;DHT22;54759;48.094;-1.628;2023-04-22T13:00:14;22.70;41.20
40738;DHT22;54759;48.094;-1.628;2023-04-22T13:03:16;22.50;40.90
40738;DHT22;54759;48.094;-1.628;2023-04-22T13:09:19;22.90;39.40
40738;DHT22;54759;48.094;-1.628;2023-04-22T13:12:20;22.70;40.60
40738;DHT22;54759;48.094;-1.628;2023-04-22T13:15:23;22.70;40.90
40738;DHT22;54759;48.094;-1.628;2023-04-22T13:18:29;22.40;40.40
40738;DHT22;54759;48.094;-1.628;2023-04-22T13:21:32;23.10;40.70
40738;DHT22;54759;48.094;-1.628;2023-04-22T13:24:34;23.10;40.60
40738;DHT22;54759;48.094;-1.628;2023-04-22T13:27:36;23.00;40.90
40738;DHT22;54759;48.094;-1.628;2023-04-22T13:30:38;22.80;40.70
40738;DHT22;54759;48.094;-1.628;2023-04-22T13:33:39;22.60;40.10
40738;DHT22;54759;48.094;-1.628;2023-04-22T13:36:42;22.80;40.20
40738;DHT22;54759;48.094;-1.628;2023-04-22T13:39:43;22.80;40.10
40738;DHT22;54759;48.094;-1.628;2023-04-22T13:42:45;22.90;40.70
40738;DHT22;54759;48.094;-1.628;2023-04-22T13:45:47;23.10;40.30
40738;DHT22;54759;48.094;-1.628;2023-04-22T13:48:48;22.60;40.10
40738;DHT22;54759;48.094;-1.628;2023-04-22T13:51:50;22.50;39.90
40738;DHT22;54759;48.094;-1.628;2023-04-22T13:54:53;24.10;40.80
40738;DHT22;54759;48.094;-1.628;2023-04-22T14:00:57;22.90;38.70
40738;DHT22;54759;48.094;-1.628;2023-04-22T14:03:59;23.10;40.10
40738;DHT22;54759;48.094;-1.628;2023-04-22T14:07:01;23.00;40.20
40738;DHT22;54759;48.094;-1.628;2023-04-22T14:10:04;22.80;40.10
40738;DHT22;54759;48.094;-1.628;2023-04-22T14:13:08;22.60;39.80
40738;DHT22;54759;48.094;-1.628;2023-04-22T14:16:10;22.90;40.20
40738;DHT22;54759;48.094;-1.628;2023-04-22T14:19:12;23.10;40.40
40738;DHT22;54759;48.094;-1.628;2023-04-22T14:22:14;22.60;40.00
40738;DHT22;54759;48.094;-1.628;2023-04-22T14:25:16;22.70;40.30
40738;DHT22;54759;48.094;-1.628;2023-04-22T14:28:18;23.00;40.70
40738;DHT22;54759;48.094;-1.628;2023-04-22T14:31:20;22.80;40.50
40738;DHT22;54759;48.094;-1.628;2023-04-22T14:34:24;22.90;41.10
40738;DHT22;54759;48.094;-1.628;2023-04-22T14:37:27;22.90;40.80
40738;DHT22;54759;48.094;-1.628;2023-04-22T14:40:29;22.60;40.60
40738;DHT22;54759;48.094;-1.628;2023-04-22T14:43:31;22.70;40.60
40738;DHT22;54759;48.094;-1.628;2023-04-22T14:46:34;22.70;40.70
40738;DHT22;54759;48.094;-1.628;2023-04-22T14:49:38;23.20;41.00
40738;DHT22;54759;48.094;-1.628;2023-04-22T14:52:40;22.70;40.80
40738;DHT22;54759;48.094;-1.628;2023-04-22T14:55:46;22.40;40.70
40738;DHT22;54759;48.094;-1.628;2023-04-22T14:58:47;23.50;41.60
40738;DHT22;54759;48.094;-1.628;2023-04-22T15:01:51;22.60;41.10
40738;DHT22;54759;48.094;-1.628;2023-04-22T15:04:52;22.60;40.90
40738;DHT22;54759;48.094;-1.628;2023-04-22T15:07:54;23.10;41.30
40738;DHT22;54759;48.094;-1.628;2023-04-22T15:10:57;22.00;40.80
40738;DHT22;54759;48.094;-1.628;2023-04-22T15:13:59;23.00;41.40
40738;DHT22;54759;48.094;-1.628;2023-04-22T15:17:02;23.20;41.70
40738;DHT22;54759;48.094;-1.628;2023-04-22T15:20:05;22.80;41.40
40738;DHT22;54759;48.094;-1.628;2023-04-22T15:23:09;23.10;41.30
40738;DHT22;54759;48.094;-1.628;2023-04-22T15:26:14;23.20;41.90
40738;DHT22;54759;48.094;-1.628;2023-04-22T15:29:15;23.20;40.70
40738;DHT22;54759;48.094;-1.628;2023-04-22T15:32:17;22.70;40.90
40738;DHT22;54759;48.094;-1.628;2023-04-22T15:35:19;23.20;41.30
40738;DHT22;54759;48.094;-1.628;2023-04-22T15:38:22;23.20;41.10
40738;DHT22;54759;48.094;-1.628;2023-04-22T15:41:26;23.20;41.00
40738;DHT22;54759;48.094;-1.628;2023-04-22T15:44:28;22.80;41.40
40738;DHT22;54759;48.094;-1.628;2023-04-22T15:47:32;23.50;41.40
40738;DHT22;54759;48.094;-1.628;2023-04-22T15:50:35;23.30;41.20
40738;DHT22;54759;48.094;-1.628;2023-04-22T15:53:40;23.40;41.90
40738;DHT22;54759;48.094;-1.628;2023-04-22T15:56:48;23.20;41.50
40738;DHT22;54759;48.094;-1.628;2023-04-22T15:59:50;23.20;41.60
40738;DHT22;54759;48.094;-1.628;2023-04-22T16:03:04;22.70;41.50
40738;DHT22;54759;48.094;-1.628;2023-04-22T16:06:06;22.30;41.50
40738;DHT22;54759;48.094;-1.628;2023-04-22T16:09:08;23.20;42.40
40738;DHT22;54759;48.094;-1.628;2023-04-22T16:12:09;22.90;42.20
40738;DHT22;54759;48.094;-1.628;2023-04-22T16:15:14;22.90;42.50
40738;DHT22;54759;48.094;-1.628;2023-04-22T16:18:17;23.00;43.30
40738;DHT22;54759;48.094;-1.628;2023-04-22T16:21:18;22.70;43.50
40738;DHT22;54759;48.094;-1.628;2023-04-22T16:24:20;23.10;44.20
40738;DHT22;54759;48.094;-1.628;2023-04-22T16:27:25;23.40;45.00
40738;DHT22;54759;48.094;-1.628;2023-04-22T16:30:26;23.00;44.60
40738;DHT22;54759;48.094;-1.628;2023-04-22T16:33:28;23.10;44.80
40738;DHT22;54759;48.094;-1.628;2023-04-22T16:36:32;23.30;58.50
40738;DHT22;54759;48.094;-1.628;2023-04-22T16:39:34;22.90;44.80
40738;DHT22;54759;48.094;-1.628;2023-04-22T16:42:38;22.70;44.70
40738;DHT22;54759;48.094;-1.628;2023-04-22T16:45:40;23.20;44.90
40738;DHT22;54759;48.094;-1.628;2023-04-22T16:48:43;23.50;45.00
40738;DHT22;54759;48.094;-1.628;2023-04-22T16:51:45;23.10;44.90
40738;DHT22;54759;48.094;-1.628;2023-04-22T16:54:47;23.50;45.00
40738;DHT22;54759;48.094;-1.628;2023-04-22T16:57:51;23.30;45.60
40738;DHT22;54759;48.094;-1.628;2023-04-22T17:00:53;23.50;45.20
40738;DHT22;54759;48.094;-1.628;2023-04-22T17:03:55;23.10;44.60
40738;DHT22;54759;48.094;-1.628;2023-04-22T17:13:01;23.20;43.40
40738;DHT22;54759;48.094;-1.628;2023-04-22T17:16:03;23.40;44.50
40738;DHT22;54759;48.094;-1.628;2023-04-22T17:19:05;22.80;44.20
40738;DHT22;54759;48.094;-1.628;2023-04-22T17:25:10;23.30;43.00
40738;DHT22;54759;48.094;-1.628;2023-04-22T17:28:11;23.50;44.30
40738;DHT22;54759;48.094;-1.628;2023-04-22T17:31:13;23.10;43.90
40738;DHT22;54759;48.094;-1.628;2023-04-22T17:34:15;22.90;43.80
40738;DHT22;54759;48.094;-1.628;2023-04-22T17:37:17;23.10;43.60
40738;DHT22;54759;48.094;-1.628;2023-04-22T17:40:18;23.50;43.90
40738;DHT22;54759;48.094;-1.628;2023-04-22T17:43:22;23.70;44.10
40738;DHT22;54759;48.094;-1.628;2023-04-22T17:46:24;22.80;43.20
40738;DHT22;54759;48.094;-1.628;2023-04-22T17:49:28;23.10;43.60
40738;DHT22;54759;48.094;-1.628;2023-04-22T17:52:30;23.40;43.60
40738;DHT22;54759;48.094;-1.628;2023-04-22T17:55:37;23.60;43.70
40738;DHT22;54759;48.094;-1.628;2023-04-22T17:58:41;23.10;43.40
40738;DHT22;54759;48.094;-1.628;2023-04-22T18:01:42;23.10;43.40
40738;DHT22;54759;48.094;-1.628;2023-04-22T18:04:48;23.10;43.60
40738;DHT22;54759;48.094;-1.628;2023-04-22T18:07:49;23.00;43.40
40738;DHT22;54759;48.094;-1.628;2023-04-22T18:10:51;23.50;43.80
40738;DHT22;54759;48.094;-1.628;2023-04-22T18:16:54;23.30;42.50
40738;DHT22;54759;48.094;-1.628;2023-04-22T18:19:57;23.30;43.80
40738;DHT22;54759;48.094;-1.628;2023-04-22T18:23:20;23.50;43.70
40738;DHT22;54759;48.094;-1.628;2023-04-22T18:26:21;22.50;43.60
40738;DHT22;54759;48.094;-1.628;2023-04-22T18:29:23;23.30;44.00
40738;DHT22;54759;48.094;-1.628;2023-04-22T18:32:25;23.10;43.90
40738;DHT22;54759;48.094;-1.628;2023-04-22T18:35:27;23.10;43.80
40738;DHT22;54759;48.094;-1.628;2023-04-22T18:38:28;23.00;44.20
40738;DHT22;54759;48.094;-1.628;2023-04-22T18:41:30;23.40;44.00
40738;DHT22;54759;48.094;-1.628;2023-04-22T18:44:31;23.60;44.40
40738;DHT22;54759;48.094;-1.628;2023-04-22T18:47:33;24.30;44.60
40738;DHT22;54759;48.094;-1.628;2023-04-22T18:50:38;22.50;43.70
40738;DHT22;54759;48.094;-1.628;2023-04-22T18:53:40;23.30;43.50
40738;DHT22;54759;48.094;-1.628;2023-04-22T18:56:42;23.10;44.00
40738;DHT22;54759;48.094;-1.628;2023-04-22T18:59:49;23.30;44.20
40738;DHT22;54759;48.094;-1.628;2023-04-22T19:02:51;23.50;43.70
40738;DHT22;54759;48.094;-1.628;2023-04-22T19:05:55;23.30;44.30
40738;DHT22;54759;48.094;-1.628;2023-04-22T19:08:56;23.20;44.70
40738;DHT22;54759;48.094;-1.628;2023-04-22T19:11:58;23.10;44.90
40738;DHT22;54759;48.094;-1.628;2023-04-22T19:14:59;23.00;44.50
40738;DHT22;54759;48.094;-1.628;2023-04-22T19:18:02;22.90;44.70
40738;DHT22;54759;48.094;-1.628;2023-04-22T19:21:05;22.90;44.40
40738;DHT22;54759;48.094;-1.628;2023-04-22T19:24:07;22.90;44.50
40738;DHT22;54759;48.094;-1.628;2023-04-22T19:27:10;23.30;44.70